<?xml version="1.0" encoding="UTF-8" standalone="yes"?>
<gpx version="1.1" creator="MagicMaps Tour Explorer"
     xmlns:xsi="http://www.w3.org/2001/XMLSchema-instance"
     xmlns="http://www.topografix.com/GPX/1/1">
  <trk>
    <name>lahnenkopf_w</name>
    <trkseg>
      <trkpt lat="47.722216776" lon="11.830399225">
        <ele>857.4</ele>
      </trkpt>
      <trkpt lat="47.722272098" lon="11.829615730">
        <ele>862.0</ele>
        <time>2012-01-15T10:02:10</time>
      </trkpt>
      <trkpt lat="47.722169000" lon="11.828936000">
        <ele>862.0</ele>
        <time>2012-01-15T10:02:24</time>
      </trkpt>
      <trkpt lat="47.722061000" lon="11.828499000">
        <ele>864.4</ele>
        <time>2012-01-15T10:03:46</time>
      </trkpt>
      <trkpt lat="47.721998000" lon="11.828231000">
        <ele>864.4</ele>
        <time>2012-01-15T10:05:59</time>
      </trkpt>
      <trkpt lat="47.721819000" lon="11.827923000">
        <ele>866.8</ele>
        <time>2012-01-15T10:07:10</time>
      </trkpt>
      <trkpt lat="47.721536000" lon="11.827593000">
        <ele>868.7</ele>
        <time>2012-01-15T10:08:04</time>
      </trkpt>
      <trkpt lat="47.721445000" lon="11.827553000">
        <ele>869.6</ele>
        <time>2012-01-15T10:08:17</time>
      </trkpt>
      <trkpt lat="47.721321000" lon="11.827448000">
        <ele>870.1</ele>
        <time>2012-01-15T10:08:35</time>
      </trkpt>
      <trkpt lat="47.721083000" lon="11.827209000">
        <ele>871.6</ele>
        <time>2012-01-15T10:09:14</time>
      </trkpt>
      <trkpt lat="47.720930000" lon="11.827091000">
        <ele>873.5</ele>
        <time>2012-01-15T10:09:41</time>
      </trkpt>
      <trkpt lat="47.720753000" lon="11.826879000">
        <ele>873.5</ele>
        <time>2012-01-15T10:10:07</time>
      </trkpt>
      <trkpt lat="47.720676000" lon="11.826772000">
        <ele>874.5</ele>
        <time>2012-01-15T10:10:21</time>
      </trkpt>
      <trkpt lat="47.720545000" lon="11.826545000">
        <ele>875.9</ele>
        <time>2012-01-15T10:10:49</time>
      </trkpt>
      <trkpt lat="47.720487000" lon="11.826408000">
        <ele>876.4</ele>
        <time>2012-01-15T10:11:05</time>
      </trkpt>
      <trkpt lat="47.720410000" lon="11.826293000">
        <ele>876.4</ele>
        <time>2012-01-15T10:11:19</time>
      </trkpt>
      <trkpt lat="47.720342000" lon="11.826081000">
        <ele>878.3</ele>
        <time>2012-01-15T10:11:40</time>
      </trkpt>
      <trkpt lat="47.720268000" lon="11.825924000">
        <ele>878.3</ele>
        <time>2012-01-15T10:11:54</time>
      </trkpt>
      <trkpt lat="47.720133000" lon="11.825709000">
        <ele>879.3</ele>
        <time>2012-01-15T10:12:20</time>
      </trkpt>
      <trkpt lat="47.720013000" lon="11.825586000">
        <ele>880.7</ele>
        <time>2012-01-15T10:12:38</time>
      </trkpt>
      <trkpt lat="47.719960000" lon="11.825442000">
        <ele>881.7</ele>
        <time>2012-01-15T10:12:50</time>
      </trkpt>
      <trkpt lat="47.719902000" lon="11.825112000">
        <ele>883.6</ele>
        <time>2012-01-15T10:13:18</time>
      </trkpt>
      <trkpt lat="47.719879000" lon="11.824872000">
        <ele>884.5</ele>
        <time>2012-01-15T10:13:37</time>
      </trkpt>
      <trkpt lat="47.719819000" lon="11.824782000">
        <ele>885.0</ele>
        <time>2012-01-15T10:13:47</time>
      </trkpt>
      <trkpt lat="47.719790000" lon="11.824657000">
        <ele>885.5</ele>
        <time>2012-01-15T10:13:59</time>
      </trkpt>
      <trkpt lat="47.719698000" lon="11.824531000">
        <ele>886.0</ele>
        <time>2012-01-15T10:14:13</time>
      </trkpt>
      <trkpt lat="47.719578000" lon="11.824314000">
        <ele>887.9</ele>
        <time>2012-01-15T10:14:41</time>
      </trkpt>
      <trkpt lat="47.719289000" lon="11.823653000">
        <ele>892.7</ele>
        <time>2012-01-15T10:15:49</time>
      </trkpt>
      <trkpt lat="47.719246000" lon="11.823285000">
        <ele>895.1</ele>
        <time>2012-01-15T10:16:20</time>
      </trkpt>
      <trkpt lat="47.719187000" lon="11.823162000">
        <ele>895.1</ele>
        <time>2012-01-15T10:16:32</time>
      </trkpt>
      <trkpt lat="47.719151000" lon="11.822936000">
        <ele>896.6</ele>
        <time>2012-01-15T10:16:48</time>
      </trkpt>
      <trkpt lat="47.719146000" lon="11.822807000">
        <ele>897.0</ele>
        <time>2012-01-15T10:17:01</time>
      </trkpt>
      <trkpt lat="47.719051000" lon="11.822692000">
        <ele>898.5</ele>
        <time>2012-01-15T10:17:19</time>
      </trkpt>
      <trkpt lat="47.718999000" lon="11.822665000">
        <ele>898.0</ele>
        <time>2012-01-15T10:17:30</time>
      </trkpt>
      <trkpt lat="47.718950000" lon="11.822669000">
        <ele>899.5</ele>
        <time>2012-01-15T10:17:48</time>
      </trkpt>
      <trkpt lat="47.718716000" lon="11.822847000">
        <ele>900.4</ele>
        <time>2012-01-15T10:18:10</time>
      </trkpt>
      <trkpt lat="47.718649000" lon="11.822978000">
        <ele>901.4</ele>
        <time>2012-01-15T10:18:25</time>
      </trkpt>
      <trkpt lat="47.718649000" lon="11.823132000">
        <ele>902.3</ele>
        <time>2012-01-15T10:18:40</time>
      </trkpt>
      <trkpt lat="47.718566000" lon="11.823247000">
        <ele>902.8</ele>
        <time>2012-01-15T10:18:53</time>
      </trkpt>
      <trkpt lat="47.718487000" lon="11.823295000">
        <ele>903.3</ele>
        <time>2012-01-15T10:19:03</time>
      </trkpt>
      <trkpt lat="47.718386000" lon="11.823351000">
        <ele>904.7</ele>
        <time>2012-01-15T10:19:19</time>
      </trkpt>
      <trkpt lat="47.718279000" lon="11.823369000">
        <ele>905.2</ele>
        <time>2012-01-15T10:19:33</time>
      </trkpt>
      <trkpt lat="47.718188000" lon="11.823360000">
        <ele>905.7</ele>
        <time>2012-01-15T10:19:44</time>
      </trkpt>
      <trkpt lat="47.718018000" lon="11.823290000">
        <ele>906.7</ele>
        <time>2012-01-15T10:20:09</time>
      </trkpt>
      <trkpt lat="47.717746000" lon="11.822998000">
        <ele>909.5</ele>
        <time>2012-01-15T10:20:52</time>
      </trkpt>
      <trkpt lat="47.717662000" lon="11.822883000">
        <ele>910.5</ele>
        <time>2012-01-15T10:21:07</time>
      </trkpt>
      <trkpt lat="47.717552000" lon="11.822808000">
        <ele>911.0</ele>
        <time>2012-01-15T10:21:23</time>
      </trkpt>
      <trkpt lat="47.717390000" lon="11.822786000">
        <ele>912.9</ele>
        <time>2012-01-15T10:21:49</time>
      </trkpt>
      <trkpt lat="47.717117000" lon="11.822706000">
        <ele>914.8</ele>
        <time>2012-01-15T10:22:18</time>
      </trkpt>
      <trkpt lat="47.717014000" lon="11.822644000">
        <ele>915.3</ele>
        <time>2012-01-15T10:22:32</time>
      </trkpt>
      <trkpt lat="47.716876000" lon="11.822481000">
        <ele>916.8</ele>
        <time>2012-01-15T10:22:55</time>
      </trkpt>
      <trkpt lat="47.716810000" lon="11.822382000">
        <ele>917.7</ele>
        <time>2012-01-15T10:23:08</time>
      </trkpt>
      <trkpt lat="47.716768000" lon="11.822265000">
        <ele>918.2</ele>
        <time>2012-01-15T10:23:21</time>
      </trkpt>
      <trkpt lat="47.716681000" lon="11.822159000">
        <ele>919.6</ele>
        <time>2012-01-15T10:23:35</time>
      </trkpt>
      <trkpt lat="47.716500000" lon="11.822026000">
        <ele>921.1</ele>
        <time>2012-01-15T10:24:01</time>
      </trkpt>
      <trkpt lat="47.716084000" lon="11.821823000">
        <ele>925.9</ele>
        <time>2012-01-15T10:25:02</time>
      </trkpt>
      <trkpt lat="47.715720000" lon="11.821618000">
        <ele>930.2</ele>
        <time>2012-01-15T10:26:01</time>
      </trkpt>
      <trkpt lat="47.715571000" lon="11.821500000">
        <ele>932.6</ele>
        <time>2012-01-15T10:26:29</time>
      </trkpt>
      <trkpt lat="47.715288000" lon="11.821264000">
        <ele>937.9</ele>
        <time>2012-01-15T10:27:27</time>
      </trkpt>
      <trkpt lat="47.715192000" lon="11.821213000">
        <ele>939.8</ele>
        <time>2012-01-15T10:27:42</time>
      </trkpt>
      <trkpt lat="47.715009000" lon="11.821013000">
        <ele>944.6</ele>
        <time>2012-01-15T10:28:29</time>
      </trkpt>
      <trkpt lat="47.714926000" lon="11.820946000">
        <ele>945.6</ele>
        <time>2012-01-15T10:28:41</time>
      </trkpt>
      <trkpt lat="47.714797000" lon="11.820888000">
        <ele>947.0</ele>
        <time>2012-01-15T10:28:56</time>
      </trkpt>
      <trkpt lat="47.714769000" lon="11.820855000">
        <ele>948.5</ele>
        <time>2012-01-15T10:29:10</time>
      </trkpt>
      <trkpt lat="47.714543000" lon="11.820813000">
        <ele>953.3</ele>
        <time>2012-01-15T10:29:58</time>
      </trkpt>
      <trkpt lat="47.714327000" lon="11.820725000">
        <ele>957.1</ele>
        <time>2012-01-15T10:30:36</time>
      </trkpt>
      <trkpt lat="47.714027000" lon="11.820492000">
        <ele>962.9</ele>
        <time>2012-01-15T10:31:40</time>
      </trkpt>
      <trkpt lat="47.713989000" lon="11.820480000">
        <ele>964.3</ele>
        <time>2012-01-15T10:31:45</time>
      </trkpt>
      <trkpt lat="47.713765000" lon="11.820267000">
        <ele>969.1</ele>
        <time>2012-01-15T10:32:36</time>
      </trkpt>
      <trkpt lat="47.713625000" lon="11.820021000">
        <ele>972.5</ele>
        <time>2012-01-15T10:33:15</time>
      </trkpt>
      <trkpt lat="47.713502000" lon="11.819887000">
        <ele>974.9</ele>
        <time>2012-01-15T10:33:46</time>
      </trkpt>
      <trkpt lat="47.713173000" lon="11.819693000">
        <ele>977.3</ele>
        <time>2012-01-15T10:34:48</time>
      </trkpt>
      <trkpt lat="47.713151000" lon="11.819559000">
        <ele>976.4</ele>
        <time>2012-01-15T10:55:02</time>
      </trkpt>
      <trkpt lat="47.712973000" lon="11.819302000">
        <ele>978.3</ele>
        <time>2012-01-15T10:55:27</time>
      </trkpt>
      <trkpt lat="47.712832000" lon="11.819243000">
        <ele>979.7</ele>
        <time>2012-01-15T10:55:41</time>
      </trkpt>
      <trkpt lat="47.712697000" lon="11.819265000">
        <ele>980.7</ele>
        <time>2012-01-15T10:55:54</time>
      </trkpt>
      <trkpt lat="47.712626000" lon="11.819301000">
        <ele>981.2</ele>
        <time>2012-01-15T10:56:00</time>
      </trkpt>
      <trkpt lat="47.712425000" lon="11.819317000">
        <ele>983.1</ele>
        <time>2012-01-15T10:56:23</time>
      </trkpt>
      <trkpt lat="47.712227000" lon="11.819372000">
        <ele>986.5</ele>
        <time>2012-01-15T10:56:51</time>
      </trkpt>
      <trkpt lat="47.712002000" lon="11.819527000">
        <ele>990.8</ele>
        <time>2012-01-15T10:57:26</time>
      </trkpt>
      <trkpt lat="47.711833000" lon="11.819557000">
        <ele>993.2</ele>
        <time>2012-01-15T10:57:51</time>
      </trkpt>
      <trkpt lat="47.711603000" lon="11.819498000">
        <ele>998.0</ele>
        <time>2012-01-15T10:58:29</time>
      </trkpt>
      <trkpt lat="47.711551000" lon="11.819425000">
        <ele>1000.4</ele>
        <time>2012-01-15T10:58:50</time>
      </trkpt>
      <trkpt lat="47.711386000" lon="11.819354000">
        <ele>1002.3</ele>
        <time>2012-01-15T10:59:08</time>
      </trkpt>
      <trkpt lat="47.711347000" lon="11.819263000">
        <ele>1004.7</ele>
        <time>2012-01-15T10:59:20</time>
      </trkpt>
      <trkpt lat="47.711286000" lon="11.819204000">
        <ele>1006.2</ele>
        <time>2012-01-15T10:59:33</time>
      </trkpt>
      <trkpt lat="47.711222000" lon="11.819116000">
        <ele>1007.6</ele>
        <time>2012-01-15T10:59:45</time>
      </trkpt>
      <trkpt lat="47.711082000" lon="11.818908000">
        <ele>1011.9</ele>
        <time>2012-01-15T11:00:19</time>
      </trkpt>
      <trkpt lat="47.711015000" lon="11.818683000">
        <ele>1014.3</ele>
        <time>2012-01-15T11:00:44</time>
      </trkpt>
      <trkpt lat="47.710834000" lon="11.818563000">
        <ele>1017.2</ele>
        <time>2012-01-15T11:01:11</time>
      </trkpt>
      <trkpt lat="47.710700000" lon="11.818335000">
        <ele>1021.1</ele>
        <time>2012-01-15T11:01:37</time>
      </trkpt>
      <trkpt lat="47.710642000" lon="11.818301000">
        <ele>1020.6</ele>
        <time>2012-01-15T11:01:48</time>
      </trkpt>
      <trkpt lat="47.710559000" lon="11.818151000">
        <ele>1023.5</ele>
        <time>2012-01-15T11:02:10</time>
      </trkpt>
      <trkpt lat="47.710359000" lon="11.817934000">
        <ele>1026.3</ele>
        <time>2012-01-15T11:02:45</time>
      </trkpt>
      <trkpt lat="47.710121000" lon="11.817562000">
        <ele>1031.6</ele>
        <time>2012-01-15T11:03:37</time>
      </trkpt>
      <trkpt lat="47.710010000" lon="11.817522000">
        <ele>1032.6</ele>
        <time>2012-01-15T11:03:52</time>
      </trkpt>
      <trkpt lat="47.709945000" lon="11.817579000">
        <ele>1035.0</ele>
        <time>2012-01-15T11:04:04</time>
      </trkpt>
      <trkpt lat="47.709903000" lon="11.817690000">
        <ele>1036.9</ele>
        <time>2012-01-15T11:04:18</time>
      </trkpt>
      <trkpt lat="47.709871000" lon="11.817839000">
        <ele>1037.9</ele>
        <time>2012-01-15T11:04:32</time>
      </trkpt>
      <trkpt lat="47.709874000" lon="11.817924000">
        <ele>1039.3</ele>
        <time>2012-01-15T11:04:44</time>
      </trkpt>
      <trkpt lat="47.709801000" lon="11.818160000">
        <ele>1041.7</ele>
        <time>2012-01-15T11:05:09</time>
      </trkpt>
      <trkpt lat="47.709810000" lon="11.818276000">
        <ele>1042.2</ele>
        <time>2012-01-15T11:05:20</time>
      </trkpt>
      <trkpt lat="47.709786000" lon="11.818454000">
        <ele>1043.7</ele>
        <time>2012-01-15T11:05:33</time>
      </trkpt>
      <trkpt lat="47.709771000" lon="11.818770000">
        <ele>1047.5</ele>
        <time>2012-01-15T11:06:09</time>
      </trkpt>
      <trkpt lat="47.709746000" lon="11.818877000">
        <ele>1049.4</ele>
        <time>2012-01-15T11:06:24</time>
      </trkpt>
      <trkpt lat="47.709583000" lon="11.819216000">
        <ele>1053.7</ele>
        <time>2012-01-15T11:07:10</time>
      </trkpt>
      <trkpt lat="47.709582000" lon="11.819338000">
        <ele>1054.7</ele>
        <time>2012-01-15T11:07:22</time>
      </trkpt>
      <trkpt lat="47.709559000" lon="11.819462000">
        <ele>1055.7</ele>
        <time>2012-01-15T11:07:34</time>
      </trkpt>
      <trkpt lat="47.709654000" lon="11.819941000">
        <ele>1061.0</ele>
        <time>2012-01-15T11:08:31</time>
      </trkpt>
      <trkpt lat="47.709650000" lon="11.820335000">
        <ele>1064.8</ele>
        <time>2012-01-15T11:09:05</time>
      </trkpt>
      <trkpt lat="47.709676000" lon="11.820552000">
        <ele>1068.6</ele>
        <time>2012-01-15T11:09:42</time>
      </trkpt>
      <trkpt lat="47.709729000" lon="11.820691000">
        <ele>1069.6</ele>
        <time>2012-01-15T11:09:53</time>
      </trkpt>
      <trkpt lat="47.709804000" lon="11.821042000">
        <ele>1073.5</ele>
        <time>2012-01-15T11:10:33</time>
      </trkpt>
      <trkpt lat="47.709792000" lon="11.821140000">
        <ele>1075.4</ele>
        <time>2012-01-15T11:10:49</time>
      </trkpt>
      <trkpt lat="47.709812000" lon="11.821304000">
        <ele>1076.3</ele>
        <time>2012-01-15T11:11:04</time>
      </trkpt>
      <trkpt lat="47.709749000" lon="11.821596000">
        <ele>1078.3</ele>
        <time>2012-01-15T11:11:29</time>
      </trkpt>
      <trkpt lat="47.709557000" lon="11.821962000">
        <ele>1084.0</ele>
        <time>2012-01-15T11:12:16</time>
      </trkpt>
      <trkpt lat="47.709457000" lon="11.822073000">
        <ele>1084.5</ele>
        <time>2012-01-15T11:12:29</time>
      </trkpt>
      <trkpt lat="47.709265000" lon="11.822184000">
        <ele>1086.4</ele>
        <time>2012-01-15T11:12:54</time>
      </trkpt>
      <trkpt lat="47.709170000" lon="11.822154000">
        <ele>1087.9</ele>
        <time>2012-01-15T11:13:08</time>
      </trkpt>
      <trkpt lat="47.709128000" lon="11.822080000">
        <ele>1088.3</ele>
        <time>2012-01-15T11:13:19</time>
      </trkpt>
      <trkpt lat="47.709045000" lon="11.822014000">
        <ele>1090.3</ele>
        <time>2012-01-15T11:13:30</time>
      </trkpt>
      <trkpt lat="47.708915000" lon="11.822005000">
        <ele>1092.2</ele>
        <time>2012-01-15T11:13:48</time>
      </trkpt>
      <trkpt lat="47.708685000" lon="11.822078000">
        <ele>1096.0</ele>
        <time>2012-01-15T11:14:32</time>
      </trkpt>
      <trkpt lat="47.708472000" lon="11.822252000">
        <ele>1099.4</ele>
        <time>2012-01-15T11:15:14</time>
      </trkpt>
      <trkpt lat="47.708469000" lon="11.822331000">
        <ele>1100.8</ele>
        <time>2012-01-15T11:15:26</time>
      </trkpt>
      <trkpt lat="47.708506000" lon="11.822550000">
        <ele>1103.2</ele>
        <time>2012-01-15T11:15:53</time>
      </trkpt>
      <trkpt lat="47.708471000" lon="11.822706000">
        <ele>1104.7</ele>
        <time>2012-01-15T11:16:06</time>
      </trkpt>
      <trkpt lat="47.708433000" lon="11.822837000">
        <ele>1105.7</ele>
        <time>2012-01-15T11:16:19</time>
      </trkpt>
      <trkpt lat="47.708323000" lon="11.823037000">
        <ele>1107.6</ele>
        <time>2012-01-15T11:16:45</time>
      </trkpt>
      <trkpt lat="47.708297000" lon="11.823159000">
        <ele>1108.5</ele>
        <time>2012-01-15T11:16:56</time>
      </trkpt>
      <trkpt lat="47.708238000" lon="11.823290000">
        <ele>1109.5</ele>
        <time>2012-01-15T11:17:08</time>
      </trkpt>
      <trkpt lat="47.708131000" lon="11.823375000">
        <ele>1112.4</ele>
        <time>2012-01-15T11:17:27</time>
      </trkpt>
      <trkpt lat="47.708046000" lon="11.823408000">
        <ele>1114.3</ele>
        <time>2012-01-15T11:17:40</time>
      </trkpt>
      <trkpt lat="47.707970000" lon="11.823495000">
        <ele>1116.2</ele>
        <time>2012-01-15T11:17:54</time>
      </trkpt>
      <trkpt lat="47.707921000" lon="11.823483000">
        <ele>1117.7</ele>
        <time>2012-01-15T11:18:03</time>
      </trkpt>
      <trkpt lat="47.707761000" lon="11.823585000">
        <ele>1120.5</ele>
        <time>2012-01-15T11:18:31</time>
      </trkpt>
      <trkpt lat="47.707541000" lon="11.823644000">
        <ele>1126.3</ele>
        <time>2012-01-15T11:19:19</time>
      </trkpt>
      <trkpt lat="47.707388000" lon="11.823480000">
        <ele>1130.7</ele>
        <time>2012-01-15T11:19:55</time>
      </trkpt>
      <trkpt lat="47.707315000" lon="11.823368000">
        <ele>1132.6</ele>
        <time>2012-01-15T11:20:15</time>
      </trkpt>
      <trkpt lat="47.706754000" lon="11.822965000">
        <ele>1139.8</ele>
        <time>2012-01-15T11:25:54</time>
      </trkpt>
      <trkpt lat="47.706401000" lon="11.822657000">
        <ele>1144.1</ele>
        <time>2012-01-15T11:26:51</time>
      </trkpt>
      <trkpt lat="47.706214000" lon="11.822549000">
        <ele>1142.7</ele>
        <time>2012-01-15T11:30:20</time>
      </trkpt>
      <trkpt lat="47.706175000" lon="11.822488000">
        <ele>1143.6</ele>
        <time>2012-01-15T11:30:32</time>
      </trkpt>
      <trkpt lat="47.706069000" lon="11.822365000">
        <ele>1145.5</ele>
        <time>2012-01-15T11:32:44</time>
      </trkpt>
      <trkpt lat="47.705989000" lon="11.822220000">
        <ele>1147.5</ele>
        <time>2012-01-15T11:32:59</time>
      </trkpt>
      <trkpt lat="47.705945000" lon="11.822071000">
        <ele>1148.4</ele>
        <time>2012-01-15T11:33:22</time>
      </trkpt>
      <trkpt lat="47.705813000" lon="11.821782000">
        <ele>1150.3</ele>
        <time>2012-01-15T11:33:50</time>
      </trkpt>
      <trkpt lat="47.705771000" lon="11.821637000">
        <ele>1150.3</ele>
        <time>2012-01-15T11:34:04</time>
      </trkpt>
      <trkpt lat="47.705650000" lon="11.821344000">
        <ele>1152.8</ele>
        <time>2012-01-15T11:34:38</time>
      </trkpt>
      <trkpt lat="47.705595000" lon="11.821261000">
        <ele>1154.2</ele>
        <time>2012-01-15T11:34:52</time>
      </trkpt>
      <trkpt lat="47.705572000" lon="11.821172000">
        <ele>1154.2</ele>
        <time>2012-01-15T11:35:02</time>
      </trkpt>
      <trkpt lat="47.705506000" lon="11.821060000">
        <ele>1154.7</ele>
        <time>2012-01-15T11:35:15</time>
      </trkpt>
      <trkpt lat="47.705428000" lon="11.820841000">
        <ele>1155.2</ele>
        <time>2012-01-15T11:35:42</time>
      </trkpt>
      <trkpt lat="47.705339000" lon="11.820646000">
        <ele>1156.6</ele>
        <time>2012-01-15T11:36:02</time>
      </trkpt>
      <trkpt lat="47.705114000" lon="11.820214000">
        <ele>1158.5</ele>
        <time>2012-01-15T11:36:47</time>
      </trkpt>
      <trkpt lat="47.705035000" lon="11.820003000">
        <ele>1160.5</ele>
        <time>2012-01-15T11:37:11</time>
      </trkpt>
      <trkpt lat="47.704958000" lon="11.819855000">
        <ele>1162.4</ele>
        <time>2012-01-15T11:37:28</time>
      </trkpt>
      <trkpt lat="47.704936000" lon="11.819739000">
        <ele>1163.8</ele>
        <time>2012-01-15T11:37:40</time>
      </trkpt>
      <trkpt lat="47.704885000" lon="11.819694000">
        <ele>1164.8</ele>
        <time>2012-01-15T11:37:52</time>
      </trkpt>
      <trkpt lat="47.704815000" lon="11.819354000">
        <ele>1170.1</ele>
        <time>2012-01-15T11:38:41</time>
      </trkpt>
      <trkpt lat="47.704793000" lon="11.819175000">
        <ele>1172.5</ele>
        <time>2012-01-15T11:39:06</time>
      </trkpt>
      <trkpt lat="47.704793000" lon="11.819118000">
        <ele>1174.4</ele>
        <time>2012-01-15T11:39:19</time>
      </trkpt>
      <trkpt lat="47.704809000" lon="11.819113000">
        <ele>1175.3</ele>
        <time>2012-01-15T11:39:33</time>
      </trkpt>
      <trkpt lat="47.704770000" lon="11.819298000">
        <ele>1171.5</ele>
        <time>2012-01-15T11:40:30</time>
      </trkpt>
      <trkpt lat="47.704772000" lon="11.819149000">
        <ele>1173.0</ele>
        <time>2012-01-15T11:40:58</time>
      </trkpt>
      <trkpt lat="47.704806000" lon="11.819087000">
        <ele>1174.4</ele>
        <time>2012-01-15T11:41:10</time>
      </trkpt>
      <trkpt lat="47.704789000" lon="11.819126000">
        <ele>1172.5</ele>
        <time>2012-01-15T11:43:41</time>
      </trkpt>
      <trkpt lat="47.704762000" lon="11.819140000">
        <ele>1172.5</ele>
        <time>2012-01-15T11:48:38</time>
      </trkpt>
      <trkpt lat="47.704755000" lon="11.819049000">
        <ele>1173.4</ele>
        <time>2012-01-15T11:48:49</time>
      </trkpt>
      <trkpt lat="47.704715000" lon="11.818908000">
        <ele>1175.3</ele>
        <time>2012-01-15T11:49:04</time>
      </trkpt>
      <trkpt lat="47.704653000" lon="11.818765000">
        <ele>1177.8</ele>
        <time>2012-01-15T11:49:25</time>
      </trkpt>
      <trkpt lat="47.704615000" lon="11.818505000">
        <ele>1180.6</ele>
        <time>2012-01-15T11:49:56</time>
      </trkpt>
      <trkpt lat="47.704458000" lon="11.818190000">
        <ele>1185.4</ele>
        <time>2012-01-15T11:50:48</time>
      </trkpt>
      <trkpt lat="47.704351000" lon="11.818102000">
        <ele>1187.8</ele>
        <time>2012-01-15T11:51:08</time>
      </trkpt>
      <trkpt lat="47.704272000" lon="11.818096000">
        <ele>1189.8</ele>
        <time>2012-01-15T11:51:20</time>
      </trkpt>
      <trkpt lat="47.704195000" lon="11.818151000">
        <ele>1191.7</ele>
        <time>2012-01-15T11:51:39</time>
      </trkpt>
      <trkpt lat="47.704189000" lon="11.818280000">
        <ele>1194.1</ele>
        <time>2012-01-15T11:51:58</time>
      </trkpt>
      <trkpt lat="47.704086000" lon="11.818362000">
        <ele>1196.5</ele>
        <time>2012-01-15T11:52:20</time>
      </trkpt>
      <trkpt lat="47.703960000" lon="11.818389000">
        <ele>1197.0</ele>
        <time>2012-01-15T11:52:32</time>
      </trkpt>
      <trkpt lat="47.703655000" lon="11.818305000">
        <ele>1203.7</ele>
        <time>2012-01-15T11:54:01</time>
      </trkpt>
      <trkpt lat="47.703629000" lon="11.818353000">
        <ele>1204.2</ele>
        <time>2012-01-15T11:57:07</time>
      </trkpt>
      <trkpt lat="47.703563000" lon="11.818315000">
        <ele>1206.6</ele>
        <time>2012-01-15T11:59:13</time>
      </trkpt>
      <trkpt lat="47.703610000" lon="11.818349000">
        <ele>1204.7</ele>
        <time>2012-01-15T11:59:54</time>
      </trkpt>
      <trkpt lat="47.703494000" lon="11.818223000">
        <ele>1207.5</ele>
        <time>2012-01-15T12:00:34</time>
      </trkpt>
      <trkpt lat="47.703456000" lon="11.818225000">
        <ele>1208.5</ele>
        <time>2012-01-15T12:01:31</time>
      </trkpt>
      <trkpt lat="47.703346000" lon="11.818158000">
        <ele>1212.4</ele>
        <time>2012-01-15T12:01:55</time>
      </trkpt>
      <trkpt lat="47.703193000" lon="11.818114000">
        <ele>1215.2</ele>
        <time>2012-01-15T12:02:20</time>
      </trkpt>
      <trkpt lat="47.702935000" lon="11.818152000">
        <ele>1219.6</ele>
        <time>2012-01-15T12:03:07</time>
      </trkpt>
      <trkpt lat="47.702790000" lon="11.818137000">
        <ele>1221.5</ele>
        <time>2012-01-15T12:03:26</time>
      </trkpt>
      <trkpt lat="47.702703000" lon="11.818161000">
        <ele>1222.9</ele>
        <time>2012-01-15T12:03:39</time>
      </trkpt>
      <trkpt lat="47.702605000" lon="11.818131000">
        <ele>1225.8</ele>
        <time>2012-01-15T12:04:02</time>
      </trkpt>
      <trkpt lat="47.702486000" lon="11.818052000">
        <ele>1227.3</ele>
        <time>2012-01-15T12:04:17</time>
      </trkpt>
      <trkpt lat="47.702206000" lon="11.818059000">
        <ele>1232.1</ele>
        <time>2012-01-15T12:05:04</time>
      </trkpt>
      <trkpt lat="47.702047000" lon="11.817996000">
        <ele>1235.4</ele>
        <time>2012-01-15T12:05:27</time>
      </trkpt>
      <trkpt lat="47.701915000" lon="11.818131000">
        <ele>1237.3</ele>
        <time>2012-01-15T12:05:55</time>
      </trkpt>
      <trkpt lat="47.701849000" lon="11.818232000">
        <ele>1237.8</ele>
        <time>2012-01-15T12:06:09</time>
      </trkpt>
      <trkpt lat="47.701744000" lon="11.818502000">
        <ele>1240.2</ele>
        <time>2012-01-15T12:06:41</time>
      </trkpt>
      <trkpt lat="47.701524000" lon="11.818832000">
        <ele>1243.6</ele>
        <time>2012-01-15T12:07:30</time>
      </trkpt>
      <trkpt lat="47.701510000" lon="11.818886000">
        <ele>1244.1</ele>
        <time>2012-01-15T12:07:40</time>
      </trkpt>
      <trkpt lat="47.701430000" lon="11.819003000">
        <ele>1245.5</ele>
        <time>2012-01-15T12:08:06</time>
      </trkpt>
      <trkpt lat="47.701432000" lon="11.819041000">
        <ele>1247.5</ele>
        <time>2012-01-15T12:08:25</time>
      </trkpt>
      <trkpt lat="47.701388000" lon="11.819050000">
        <ele>1248.4</ele>
        <time>2012-01-15T12:08:42</time>
      </trkpt>
      <trkpt lat="47.701163000" lon="11.819206000">
        <ele>1251.8</ele>
        <time>2012-01-15T12:09:06</time>
      </trkpt>
      <trkpt lat="47.700914000" lon="11.819259000">
        <ele>1255.1</ele>
        <time>2012-01-15T12:09:25</time>
      </trkpt>
      <trkpt lat="47.700644000" lon="11.819377000">
        <ele>1258.0</ele>
        <time>2012-01-15T12:09:41</time>
      </trkpt>
      <trkpt lat="47.700494000" lon="11.819370000">
        <ele>1262.8</ele>
        <time>2012-01-15T12:10:08</time>
      </trkpt>
      <trkpt lat="47.700392000" lon="11.819400000">
        <ele>1269.6</ele>
        <time>2012-01-15T12:10:50</time>
      </trkpt>
      <trkpt lat="47.700234000" lon="11.819527000">
        <ele>1275.8</ele>
        <time>2012-01-15T12:11:32</time>
      </trkpt>
      <trkpt lat="47.700180000" lon="11.819638000">
        <ele>1277.2</ele>
        <time>2012-01-15T12:11:44</time>
      </trkpt>
      <trkpt lat="47.700096000" lon="11.819671000">
        <ele>1279.7</ele>
        <time>2012-01-15T12:12:00</time>
      </trkpt>
      <trkpt lat="47.700082000" lon="11.819732000">
        <ele>1283.0</ele>
        <time>2012-01-15T12:12:20</time>
      </trkpt>
      <trkpt lat="47.700041000" lon="11.819719000">
        <ele>1284.9</ele>
        <time>2012-01-15T12:12:36</time>
      </trkpt>
      <trkpt lat="47.699896000" lon="11.819527000">
        <ele>1292.2</ele>
        <time>2012-01-15T12:13:27</time>
      </trkpt>
      <trkpt lat="47.699766000" lon="11.819397000">
        <ele>1298.9</ele>
        <time>2012-01-15T12:14:16</time>
      </trkpt>
      <trkpt lat="47.699713000" lon="11.819537000">
        <ele>1303.7</ele>
        <time>2012-01-15T12:14:52</time>
      </trkpt>
      <trkpt lat="47.699656000" lon="11.819839000">
        <ele>1311.4</ele>
        <time>2012-01-15T12:15:49</time>
      </trkpt>
      <trkpt lat="47.699485000" lon="11.819950000">
        <ele>1315.7</ele>
        <time>2012-01-15T12:16:17</time>
      </trkpt>
      <trkpt lat="47.699426000" lon="11.819965000">
        <ele>1318.6</ele>
        <time>2012-01-15T12:16:36</time>
      </trkpt>
      <trkpt lat="47.699390000" lon="11.819908000">
        <ele>1321.0</ele>
        <time>2012-01-15T12:16:53</time>
      </trkpt>
      <trkpt lat="47.699294000" lon="11.819856000">
        <ele>1324.8</ele>
        <time>2012-01-15T12:17:26</time>
      </trkpt>
      <trkpt lat="47.699222000" lon="11.819647000">
        <ele>1330.6</ele>
        <time>2012-01-15T12:18:15</time>
      </trkpt>
      <trkpt lat="47.699195000" lon="11.819470000">
        <ele>1334.9</ele>
        <time>2012-01-15T12:18:50</time>
      </trkpt>
      <trkpt lat="47.699119000" lon="11.819302000">
        <ele>1338.8</ele>
        <time>2012-01-15T12:19:19</time>
      </trkpt>
      <trkpt lat="47.698984000" lon="11.819282000">
        <ele>1340.2</ele>
        <time>2012-01-15T12:19:38</time>
      </trkpt>
      <trkpt lat="47.698849000" lon="11.819300000">
        <ele>1344.5</ele>
        <time>2012-01-15T12:20:09</time>
      </trkpt>
      <trkpt lat="47.698797000" lon="11.819339000">
        <ele>1346.0</ele>
        <time>2012-01-15T12:20:27</time>
      </trkpt>
      <trkpt lat="47.698660000" lon="11.819572000">
        <ele>1348.9</ele>
        <time>2012-01-15T12:21:00</time>
      </trkpt>
      <trkpt lat="47.698519000" lon="11.819910000">
        <ele>1353.7</ele>
        <time>2012-01-15T12:21:47</time>
      </trkpt>
      <trkpt lat="47.698458000" lon="11.820166000">
        <ele>1356.6</ele>
        <time>2012-01-15T12:22:22</time>
      </trkpt>
      <trkpt lat="47.698401000" lon="11.820592000">
        <ele>1362.3</ele>
        <time>2012-01-15T12:23:24</time>
      </trkpt>
      <trkpt lat="47.698424000" lon="11.820485000">
        <ele>1359.9</ele>
        <time>2012-01-15T12:25:41</time>
      </trkpt>
      <trkpt lat="47.698452000" lon="11.820513000">
        <ele>1359.4</ele>
        <time>2012-01-15T12:25:53</time>
      </trkpt>
      <trkpt lat="47.698495000" lon="11.820611000">
        <ele>1360.4</ele>
        <time>2012-01-15T12:26:07</time>
      </trkpt>
      <trkpt lat="47.698482000" lon="11.820691000">
        <ele>1360.9</ele>
        <time>2012-01-15T12:26:20</time>
      </trkpt>
      <trkpt lat="47.698406000" lon="11.820730000">
        <ele>1362.8</ele>
        <time>2012-01-15T12:27:05</time>
      </trkpt>
      <trkpt lat="47.698391000" lon="11.820799000">
        <ele>1363.8</ele>
        <time>2012-01-15T12:27:21</time>
      </trkpt>
      <trkpt lat="47.698391000" lon="11.820963000">
        <ele>1366.2</ele>
        <time>2012-01-15T12:27:43</time>
      </trkpt>
      <trkpt lat="47.698446000" lon="11.821303000">
        <ele>1371.5</ele>
        <time>2012-01-15T12:28:20</time>
      </trkpt>
      <trkpt lat="47.698478000" lon="11.821570000">
        <ele>1377.2</ele>
        <time>2012-01-15T12:29:08</time>
      </trkpt>
      <trkpt lat="47.698475000" lon="11.821652000">
        <ele>1379.2</ele>
        <time>2012-01-15T12:29:21</time>
      </trkpt>
      <trkpt lat="47.698532000" lon="11.821733000">
        <ele>1381.5</ele>
        <time>2012-01-15T12:29:39</time>
      </trkpt>
      <trkpt lat="47.698552000" lon="11.821824000">
        <ele>1382.5</ele>
        <time>2012-01-15T12:29:51</time>
      </trkpt>
      <trkpt lat="47.698564000" lon="11.822035000">
        <ele>1387.3</ele>
        <time>2012-01-15T12:30:29</time>
      </trkpt>
      <trkpt lat="47.698583000" lon="11.822092000">
        <ele>1389.2</ele>
        <time>2012-01-15T12:30:41</time>
      </trkpt>
      <trkpt lat="47.698652000" lon="11.822157000">
        <ele>1391.2</ele>
        <time>2012-01-15T12:30:57</time>
      </trkpt>
      <trkpt lat="47.698678000" lon="11.822279000">
        <ele>1393.6</ele>
        <time>2012-01-15T12:31:18</time>
      </trkpt>
      <trkpt lat="47.698684000" lon="11.822353000">
        <ele>1397.4</ele>
        <time>2012-01-15T12:31:35</time>
      </trkpt>
      <trkpt lat="47.698657000" lon="11.822444000">
        <ele>1398.9</ele>
        <time>2012-01-15T12:31:51</time>
      </trkpt>
      <trkpt lat="47.698799000" lon="11.823076000">
        <ele>1408.0</ele>
        <time>2012-01-15T12:33:11</time>
      </trkpt>
      <trkpt lat="47.698838000" lon="11.823187000">
        <ele>1409.4</ele>
        <time>2012-01-15T12:33:25</time>
      </trkpt>
      <trkpt lat="47.698856000" lon="11.823421000">
        <ele>1415.2</ele>
        <time>2012-01-15T12:34:06</time>
      </trkpt>
      <trkpt lat="47.698894000" lon="11.823600000">
        <ele>1418.1</ele>
        <time>2012-01-15T12:34:27</time>
      </trkpt>
      <trkpt lat="47.698929000" lon="11.823937000">
        <ele>1423.8</ele>
        <time>2012-01-15T12:35:11</time>
      </trkpt>
      <trkpt lat="47.698960000" lon="11.824090000">
        <ele>1425.8</ele>
        <time>2012-01-15T12:35:28</time>
      </trkpt>
      <trkpt lat="47.699015000" lon="11.824302000">
        <ele>1429.1</ele>
        <time>2012-01-15T12:35:50</time>
      </trkpt>
      <trkpt lat="47.699167000" lon="11.824675000">
        <ele>1432.5</ele>
        <time>2012-01-15T12:36:34</time>
      </trkpt>
      <trkpt lat="47.699222000" lon="11.824756000">
        <ele>1432.0</ele>
        <time>2012-01-15T12:37:06</time>
      </trkpt>
      <trkpt lat="47.699278000" lon="11.824810000">
        <ele>1431.1</ele>
        <time>2012-01-15T12:37:41</time>
      </trkpt>
      <trkpt lat="47.699367000" lon="11.824792000">
        <ele>1429.1</ele>
        <time>2012-01-15T12:38:07</time>
      </trkpt>
      <trkpt lat="47.699403000" lon="11.824815000">
        <ele>1428.7</ele>
        <time>2012-01-15T12:38:09</time>
      </trkpt>
      <trkpt lat="47.699411000" lon="11.824899000">
        <ele>1430.1</ele>
        <time>2012-01-15T12:38:23</time>
      </trkpt>
      <trkpt lat="47.699383000" lon="11.824940000">
        <ele>1431.1</ele>
        <time>2012-01-15T12:38:48</time>
      </trkpt>
      <trkpt lat="47.699306000" lon="11.824823000">
        <ele>1431.1</ele>
        <time>2012-01-15T12:39:08</time>
      </trkpt>
      <trkpt lat="47.699391000" lon="11.824961000">
        <ele>1430.1</ele>
        <time>2012-01-15T12:39:21</time>
      </trkpt>
      <trkpt lat="47.699391000" lon="11.825005000">
        <ele>1429.6</ele>
        <time>2012-01-15T12:40:17</time>
      </trkpt>
      <trkpt lat="47.699256000" lon="11.824770000">
        <ele>1431.1</ele>
        <time>2012-01-15T12:40:37</time>
      </trkpt>
      <trkpt lat="47.699200000" lon="11.824720000">
        <ele>1431.1</ele>
        <time>2012-01-15T12:41:27</time>
      </trkpt>
      <trkpt lat="47.699207000" lon="11.824746000">
        <ele>1426.7</ele>
        <time>2012-01-15T12:51:30</time>
      </trkpt>
    </trkseg>
  </trk>
</gpx>
